Time;durP1;ratioP1;P1;durP2;ratioP2;P2;SDS_P1;SDS_P2;PMS_P1;PMS_P2;Temp;Humidity;BMP_temperature;BMP_pressure;BME280_temperature;BME280_humidity;BME280_pressure;Samples;Min_cycle;Max_cycle;Signal;HPM_P1;HPM_P2
2023/11/27 00:00:03;;;;;;;39.97;21.50;;;;;;;;;;5031604;28;20193;-68
2023/11/27 00:02:28;;;;;;;35.03;21.27;;;;;;;;;;5023868;28;20598;-69
2023/11/27 00:04:54;;;;;;;36.73;22.70;;;;;;;;;;5017807;28;20245;-69
2023/11/27 00:07:19;;;;;;;41.03;21.37;;;;;;;;;;5037845;28;20212;-70
2023/11/27 00:09:44;;;;;;;39.67;21.83;;;;;;;;;;5040469;28;20181;-71
2023/11/27 00:12:10;;;;;;;39.27;21.70;;;;;;;;;;5038068;28;20225;-71
2023/11/27 00:14:36;;;;;;;36.30;20.93;;;;;;;;;;5043425;28;20620;-72
2023/11/27 00:17:01;;;;;;;38.47;20.17;;;;;;;;;;5018178;28;22012;-72
2023/11/27 00:19:27;;;;;;;42.03;21.27;;;;;;;;;;5036295;28;20224;-72
2023/11/27 00:21:52;;;;;;;34.00;21.17;;;;;;;;;;5031317;28;20218;-72
2023/11/27 00:24:18;;;;;;;38.57;20.07;;;;;;;;;;5032802;28;20289;-72
2023/11/27 00:26:43;;;;;;;34.90;19.80;;;;;;;;;;5045354;28;20193;-72
2023/11/27 00:29:09;;;;;;;39.57;20.53;;;;;;;;;;5038451;28;20667;-72
2023/11/27 00:31:35;;;;;;;35.53;20.93;;;;;;;;;;5043843;28;20257;-72
2023/11/27 00:34:00;;;;;;;35.27;19.93;;;;;;;;;;5041442;28;20190;-72
2023/11/27 00:36:25;;;;;;;35.17;20.67;;;;;;;;;;5024692;28;20296;-72
2023/11/27 00:38:51;;;;;;;38.60;20.47;;;;;;;;;;5029858;28;20292;-72
2023/11/27 00:41:17;;;;;;;38.47;20.73;;;;;;;;;;5030088;28;20307;-72
2023/11/27 00:43:43;;;;;;;42.30;21.07;;;;;;;;;;5038307;28;20182;-72
2023/11/27 00:46:13;;;;;;;36.13;19.50;;;;;;;;;;5020621;28;20571;-72
2023/11/27 00:48:38;;;;;;;36.97;20.70;;;;;;;;;;5023834;28;20197;-72
2023/11/27 00:51:08;;;;;;;38.90;20.37;;;;;;;;;;5033914;28;20186;-74
2023/11/27 00:53:33;;;;;;;41.73;20.23;;;;;;;;;;5024049;28;20187;-74
2023/11/27 00:55:58;;;;;;;34.67;19.77;;;;;;;;;;5034268;28;20338;-74
2023/11/27 00:58:25;;;;;;;33.43;19.83;;;;;;;;;;5045299;28;20264;-74
2023/11/27 01:00:53;;;;;;;38.07;19.63;;;;;;;;;;5028491;28;20237;-73
2023/11/27 01:03:18;;;;;;;31.77;19.20;;;;;;;;;;5059722;28;20190;-72
2023/11/27 01:05:43;;;;;;;34.60;20.87;;;;;;;;;;5033351;28;20240;-72
2023/11/27 01:08:09;;;;;;;32.60;19.47;;;;;;;;;;5013902;28;20209;-72
2023/11/27 01:10:34;;;;;;;33.43;18.57;;;;;;;;;;5022158;28;20273;-72
2023/11/27 01:12:59;;;;;;;32.57;18.30;;;;;;;;;;5026278;28;20178;-72
2023/11/27 01:15:25;;;;;;;29.97;18.20;;;;;;;;;;5022647;28;20270;-72
2023/11/27 01:17:50;;;;;;;29.47;17.70;;;;;;;;;;5013726;28;20619;-72
2023/11/27 01:20:16;;;;;;;34.40;17.80;;;;;;;;;;5026603;28;20260;-73
2023/11/27 01:22:41;;;;;;;29.20;17.80;;;;;;;;;;5040596;28;20185;-72
2023/11/27 01:25:07;;;;;;;30.43;17.77;;;;;;;;;;5033100;28;20191;-72
2023/11/27 01:27:34;;;;;;;31.73;17.93;;;;;;;;;;5033738;28;20189;-74
2023/11/27 01:30:04;;;;;;;35.00;19.13;;;;;;;;;;5027964;28;20582;-74
2023/11/27 01:32:29;;;;;;;29.97;17.13;;;;;;;;;;5044915;28;20256;-74
2023/11/27 01:34:55;;;;;;;26.17;17.00;;;;;;;;;;5036116;28;20186;-74
2023/11/27 01:37:20;;;;;;;31.13;17.83;;;;;;;;;;5043336;28;20287;-73
2023/11/27 01:39:46;;;;;;;29.30;16.90;;;;;;;;;;5045516;28;20182;-73
2023/11/27 01:42:11;;;;;;;29.37;16.97;;;;;;;;;;5062417;28;20210;-73
2023/11/27 01:44:37;;;;;;;28.00;16.63;;;;;;;;;;5033815;28;20664;-72
2023/11/27 01:47:03;;;;;;;24.20;16.57;;;;;;;;;;5031138;28;20185;-73
2023/11/27 01:49:29;;;;;;;27.13;15.87;;;;;;;;;;5029082;28;20194;-73
2023/11/27 01:51:56;;;;;;;32.13;16.33;;;;;;;;;;5026361;28;20179;-73
2023/11/27 01:54:22;;;;;;;25.70;16.57;;;;;;;;;;5023356;28;20288;-74
2023/11/27 01:56:49;;;;;;;21.60;15.63;;;;;;;;;;5033032;28;20225;-73
2023/11/27 01:59:16;;;;;;;23.80;15.37;;;;;;;;;;5022246;28;20211;-74
2023/11/27 02:01:42;;;;;;;26.67;15.97;;;;;;;;;;5027995;28;20645;-74
2023/11/27 02:04:08;;;;;;;28.33;15.73;;;;;;;;;;5037457;28;20205;-75
2023/11/27 02:06:33;;;;;;;29.80;15.90;;;;;;;;;;5031777;28;20197;-73
2023/11/27 02:08:59;;;;;;;28.97;16.23;;;;;;;;;;5015307;28;20278;-73
2023/11/27 02:11:25;;;;;;;30.57;15.60;;;;;;;;;;5027479;28;20280;-74
2023/11/27 02:13:51;;;;;;;23.43;15.63;;;;;;;;;;5038173;28;20186;-73
2023/11/27 02:16:17;;;;;;;28.30;15.13;;;;;;;;;;5019455;28;20331;-74
2023/11/27 02:18:43;;;;;;;24.73;15.47;;;;;;;;;;5021674;28;20295;-74
2023/11/27 02:21:10;;;;;;;22.60;15.30;;;;;;;;;;5030593;28;20218;-75
2023/11/27 02:23:37;;;;;;;25.83;15.40;;;;;;;;;;5024715;28;20178;-74
2023/11/27 02:26:06;;;;;;;21.57;14.37;;;;;;;;;;5028661;28;20190;-75
2023/11/27 02:28:32;;;;;;;23.13;15.07;;;;;;;;;;5035860;28;20275;-74
2023/11/27 02:30:58;;;;;;;22.37;14.80;;;;;;;;;;5021527;28;20564;-75
2023/11/27 02:33:25;;;;;;;23.40;15.30;;;;;;;;;;5016547;28;20185;-74
2023/11/27 02:35:51;;;;;;;21.43;14.80;;;;;;;;;;5032640;28;20186;-73
2023/11/27 02:38:16;;;;;;;26.70;14.43;;;;;;;;;;5024818;28;20183;-72
2023/11/27 02:40:42;;;;;;;21.17;15.07;;;;;;;;;;5030773;28;20622;-72
2023/11/27 02:43:09;;;;;;;24.40;15.23;;;;;;;;;;5035467;28;20198;-72
2023/11/27 02:45:35;;;;;;;25.83;14.40;;;;;;;;;;5032461;28;20217;-72
2023/11/27 02:48:00;;;;;;;25.47;13.97;;;;;;;;;;5024977;28;20299;-72
2023/11/27 02:50:26;;;;;;;23.03;14.40;;;;;;;;;;5035113;28;20189;-72
2023/11/27 02:52:51;;;;;;;20.87;14.37;;;;;;;;;;5030359;28;20178;-72
2023/11/27 02:55:17;;;;;;;22.93;14.47;;;;;;;;;;5036634;28;20189;-72
2023/11/27 02:57:42;;;;;;;23.47;15.13;;;;;;;;;;5032183;28;20191;-72
2023/11/27 03:00:12;;;;;;;24.10;15.20;;;;;;;;;;5031985;28;20563;-73
2023/11/27 03:02:38;;;;;;;22.13;14.43;;;;;;;;;;5028489;28;20325;-75
2023/11/27 03:05:07;;;;;;;22.10;14.43;;;;;;;;;;5040624;28;20221;-74
2023/11/27 03:07:33;;;;;;;21.80;14.50;;;;;;;;;;5047146;28;20283;-75
2023/11/27 03:09:59;;;;;;;20.03;13.60;;;;;;;;;;5039784;28;20193;-75
2023/11/27 03:12:24;;;;;;;22.97;14.70;;;;;;;;;;4994525;28;1109308;-74
2023/11/27 03:14:50;;;;;;;23.97;15.67;;;;;;;;;;5047133;28;20687;-73
2023/11/27 03:17:15;;;;;;;27.83;14.80;;;;;;;;;;5037771;28;20186;-73
2023/11/27 03:19:40;;;;;;;21.00;14.63;;;;;;;;;;5030224;28;20221;-75
2023/11/27 03:22:06;;;;;;;23.17;15.00;;;;;;;;;;5052661;28;20210;-74
2023/11/27 03:24:31;;;;;;;21.03;13.67;;;;;;;;;;5017971;28;20236;-75
2023/11/27 03:26:57;;;;;;;21.00;13.57;;;;;;;;;;5029507;28;20197;-75
2023/11/27 03:29:22;;;;;;;22.33;13.70;;;;;;;;;;5037829;28;20201;-75
2023/11/27 03:31:48;;;;;;;21.03;13.93;;;;;;;;;;5046471;28;20261;-74
2023/11/27 03:34:13;;;;;;;23.10;14.57;;;;;;;;;;5049313;28;20231;-73
2023/11/27 03:36:38;;;;;;;23.73;14.30;;;;;;;;;;5035584;28;20680;-74
2023/11/27 03:39:05;;;;;;;20.70;13.57;;;;;;;;;;5027326;28;20264;-73
2023/11/27 03:41:31;;;;;;;21.17;14.67;;;;;;;;;;5030849;28;20708;-73
2023/11/27 03:43:56;;;;;;;22.37;14.23;;;;;;;;;;5026762;28;20268;-74
2023/11/27 03:46:22;;;;;;;24.03;14.47;;;;;;;;;;5029047;28;20247;-75
2023/11/27 03:48:47;;;;;;;22.63;14.57;;;;;;;;;;5037432;28;20198;-74
2023/11/27 03:51:13;;;;;;;22.00;15.10;;;;;;;;;;5028135;28;20274;-75
2023/11/27 03:53:38;;;;;;;21.90;14.63;;;;;;;;;;5037727;28;20198;-74
2023/11/27 03:56:05;;;;;;;26.43;15.53;;;;;;;;;;5035478;28;20593;-75
2023/11/27 03:58:30;;;;;;;25.67;15.10;;;;;;;;;;5025979;28;20248;-74
2023/11/27 04:00:57;;;;;;;23.83;16.10;;;;;;;;;;5017979;28;20499;-73
2023/11/27 04:03:23;;;;;;;28.63;15.50;;;;;;;;;;5015910;28;20190;-73
2023/11/27 04:05:48;;;;;;;22.63;15.57;;;;;;;;;;5005501;28;20190;-72
2023/11/27 04:08:14;;;;;;;21.87;15.23;;;;;;;;;;5026065;28;20194;-74
2023/11/27 04:10:41;;;;;;;28.70;15.33;;;;;;;;;;5028058;28;20197;-72
2023/11/27 04:13:07;;;;;;;22.07;15.43;;;;;;;;;;5030780;28;20204;-72
2023/11/27 04:15:32;;;;;;;22.90;15.63;;;;;;;;;;5024213;28;20268;-73
2023/11/27 04:17:58;;;;;;;24.73;15.47;;;;;;;;;;5015857;28;20207;-72
2023/11/27 04:20:24;;;;;;;30.93;15.63;;;;;;;;;;5035504;28;20642;-72
2023/11/27 04:22:50;;;;;;;27.37;15.40;;;;;;;;;;5033051;28;20259;-73
2023/11/27 04:25:15;;;;;;;21.13;14.90;;;;;;;;;;5019756;28;20193;-73
2023/11/27 04:27:41;;;;;;;25.97;15.40;;;;;;;;;;5032745;28;20667;-72
2023/11/27 04:30:06;;;;;;;26.60;15.80;;;;;;;;;;5032674;28;20638;-73
2023/11/27 04:32:35;;;;;;;23.17;14.27;;;;;;;;;;5035256;28;20186;-72
2023/11/27 04:35:01;;;;;;;27.70;15.80;;;;;;;;;;5032600;28;20440;-72
2023/11/27 04:37:26;;;;;;;27.73;15.83;;;;;;;;;;5024486;28;20212;-72
2023/11/27 04:39:52;;;;;;;24.67;15.30;;;;;;;;;;5029736;28;20222;-72
2023/11/27 04:42:18;;;;;;;24.13;14.87;;;;;;;;;;5034280;28;20553;-72
2023/11/27 04:44:43;;;;;;;23.37;15.17;;;;;;;;;;5016970;28;20297;-73
2023/11/27 04:47:09;;;;;;;27.53;15.73;;;;;;;;;;5018974;28;20693;-72
2023/11/27 04:49:35;;;;;;;28.77;16.07;;;;;;;;;;5034077;28;20243;-72
2023/11/27 04:52:00;;;;;;;26.40;15.13;;;;;;;;;;5018955;28;20201;-72
2023/11/27 04:54:26;;;;;;;27.73;16.47;;;;;;;;;;5021263;28;20630;-72
2023/11/27 04:56:51;;;;;;;24.47;15.47;;;;;;;;;;5030502;28;20193;-72
2023/11/27 04:59:17;;;;;;;23.73;15.07;;;;;;;;;;5031760;28;20316;-72
2023/11/27 05:01:42;;;;;;;25.77;14.93;;;;;;;;;;5035224;28;20209;-72
2023/11/27 05:04:08;;;;;;;23.70;15.30;;;;;;;;;;5044455;28;20501;-73
2023/11/27 05:06:33;;;;;;;30.10;15.93;;;;;;;;;;5019270;28;20186;-72
2023/11/27 05:08:59;;;;;;;27.60;15.90;;;;;;;;;;5034314;28;20614;-72
2023/11/27 05:11:25;;;;;;;24.97;15.20;;;;;;;;;;5022784;28;20234;-72
2023/11/27 05:13:51;;;;;;;25.40;14.50;;;;;;;;;;5018832;28;20191;-73
2023/11/27 05:16:17;;;;;;;24.53;16.07;;;;;;;;;;5026268;28;20556;-72
2023/11/27 05:18:43;;;;;;;26.57;14.87;;;;;;;;;;5035477;28;20617;-72
2023/11/27 05:21:13;;;;;;;24.63;15.13;;;;;;;;;;5014253;28;20206;-72
2023/11/27 05:23:42;;;;;;;28.37;15.43;;;;;;;;;;5034051;28;20201;-72
2023/11/27 05:26:11;;;;;;;27.10;15.50;;;;;;;;;;5036321;28;20193;-72
2023/11/27 05:28:37;;;;;;;20.60;14.73;;;;;;;;;;5030611;28;20284;-72
2023/11/27 05:31:05;;;;;;;28.00;14.60;;;;;;;;;;5021492;28;20225;-72
2023/11/27 05:33:30;;;;;;;23.23;14.73;;;;;;;;;;5032528;28;20186;-72
2023/11/27 05:35:56;;;;;;;24.73;15.03;;;;;;;;;;5029186;28;20534;-72
2023/11/27 05:38:22;;;;;;;26.23;15.47;;;;;;;;;;5020276;28;20239;-72
2023/11/27 05:40:49;;;;;;;25.83;14.90;;;;;;;;;;5040461;28;20198;-72
2023/11/27 05:43:15;;;;;;;30.00;16.17;;;;;;;;;;5025047;28;20665;-72
2023/11/27 05:45:40;;;;;;;26.17;15.67;;;;;;;;;;5028066;28;20190;-72
2023/11/27 05:48:06;;;;;;;22.40;14.20;;;;;;;;;;5038291;28;20709;-73
2023/11/27 05:50:31;;;;;;;23.40;15.23;;;;;;;;;;5027536;28;20589;-72
2023/11/27 05:52:57;;;;;;;23.60;14.53;;;;;;;;;;5037223;28;20192;-72
2023/11/27 05:55:23;;;;;;;26.90;14.70;;;;;;;;;;5028061;28;20199;-72
2023/11/27 05:57:48;;;;;;;24.27;15.00;;;;;;;;;;5031096;28;20193;-72
2023/11/27 06:00:14;;;;;;;24.40;14.73;;;;;;;;;;5021603;28;20182;-72
2023/11/27 06:02:39;;;;;;;23.17;13.77;;;;;;;;;;5021776;28;20269;-72
2023/11/27 06:05:05;;;;;;;23.23;13.87;;;;;;;;;;5021015;28;20185;-73
2023/11/27 06:07:31;;;;;;;23.43;13.30;;;;;;;;;;5032749;28;20195;-73
2023/11/27 06:09:56;;;;;;;25.73;13.83;;;;;;;;;;5038391;28;20292;-73
2023/11/27 06:12:23;;;;;;;27.37;14.13;;;;;;;;;;5038121;28;20574;-76
2023/11/27 06:14:49;;;;;;;21.13;13.53;;;;;;;;;;5032292;28;20610;-73
2023/11/27 06:17:14;;;;;;;23.87;13.17;;;;;;;;;;5041378;28;20256;-74
2023/11/27 06:19:40;;;;;;;20.17;12.97;;;;;;;;;;5028086;28;20238;-73
2023/11/27 06:22:06;;;;;;;20.23;13.10;;;;;;;;;;5038814;28;20248;-73
2023/11/27 06:24:31;;;;;;;25.57;12.60;;;;;;;;;;5028892;28;20669;-74
2023/11/27 06:26:56;;;;;;;23.43;12.87;;;;;;;;;;5036758;28;20182;-74
2023/11/27 06:29:22;;;;;;;21.90;13.73;;;;;;;;;;5024899;28;20186;-76
2023/11/27 06:31:48;;;;;;;19.03;12.17;;;;;;;;;;5033956;28;20642;-74
2023/11/27 06:34:14;;;;;;;23.63;12.90;;;;;;;;;;5023154;28;20548;-74
2023/11/27 06:36:39;;;;;;;19.00;12.00;;;;;;;;;;5032204;28;20194;-76
2023/11/27 06:39:05;;;;;;;21.17;12.27;;;;;;;;;;5031537;28;20276;-74
2023/11/27 06:41:33;;;;;;;19.80;11.70;;;;;;;;;;5017571;28;20249;-75
2023/11/27 06:43:59;;;;;;;17.93;11.47;;;;;;;;;;5034745;28;20697;-74
2023/11/27 06:46:24;;;;;;;18.23;11.90;;;;;;;;;;5033260;28;20205;-75
2023/11/27 06:48:50;;;;;;;18.83;10.80;;;;;;;;;;5040699;28;20194;-75
2023/11/27 06:51:15;;;;;;;17.20;11.80;;;;;;;;;;5037737;28;20187;-75
2023/11/27 06:53:41;;;;;;;18.17;10.80;;;;;;;;;;5037839;28;20188;-74
2023/11/27 06:56:08;;;;;;;16.40;10.90;;;;;;;;;;5040113;28;20190;-73
2023/11/27 06:58:33;;;;;;;24.57;11.47;;;;;;;;;;5043119;28;20594;-73
2023/11/27 07:01:00;;;;;;;18.60;11.30;;;;;;;;;;5034552;28;20759;-74
2023/11/27 07:03:25;;;;;;;17.63;10.67;;;;;;;;;;5036992;28;20210;-75
2023/11/27 07:05:51;;;;;;;16.07;9.80;;;;;;;;;;5016962;28;20197;-75
2023/11/27 07:08:17;;;;;;;17.17;10.70;;;;;;;;;;5031322;28;20197;-74
2023/11/27 07:10:42;;;;;;;17.70;10.93;;;;;;;;;;5032794;28;20245;-74
2023/11/27 07:13:08;;;;;;;14.97;10.27;;;;;;;;;;5032717;28;20189;-75
2023/11/27 07:15:33;;;;;;;15.47;10.03;;;;;;;;;;5037481;28;20228;-73
2023/11/27 07:18:00;;;;;;;15.10;9.87;;;;;;;;;;5031120;28;20220;-74
2023/11/27 07:20:26;;;;;;;16.40;9.17;;;;;;;;;;5029575;28;20594;-74
2023/11/27 07:22:51;;;;;;;16.43;10.40;;;;;;;;;;5031012;28;20272;-74
2023/11/27 07:25:16;;;;;;;16.20;10.43;;;;;;;;;;5041617;28;20190;-75
2023/11/27 07:27:49;;;;;;;13.67;9.13;;;;;;;;;;5029874;28;20194;-75
2023/11/27 07:30:15;;;;;;;14.03;9.57;;;;;;;;;;5025489;28;20197;-74
2023/11/27 07:32:40;;;;;;;14.33;9.87;;;;;;;;;;5037528;28;20190;-75
2023/11/27 07:35:09;;;;;;;14.03;10.17;;;;;;;;;;5022671;28;20229;-73
2023/11/27 07:37:35;;;;;;;14.37;10.13;;;;;;;;;;5024667;28;20182;-73
2023/11/27 07:40:01;;;;;;;18.30;10.30;;;;;;;;;;5034607;28;20197;-72
2023/11/27 07:42:26;;;;;;;17.77;10.83;;;;;;;;;;5016888;28;20210;-74
2023/11/27 07:44:53;;;;;;;18.13;11.33;;;;;;;;;;5022921;28;20182;-74
2023/11/27 07:47:20;;;;;;;14.80;11.67;;;;;;;;;;5021189;28;20190;-73
2023/11/27 07:49:47;;;;;;;14.97;11.03;;;;;;;;;;5030370;28;20193;-72
2023/11/27 07:52:13;;;;;;;15.97;11.60;;;;;;;;;;5024959;28;20240;-72
2023/11/27 07:54:41;;;;;;;16.67;11.60;;;;;;;;;;5019609;28;20194;-72
2023/11/27 07:57:07;;;;;;;20.40;12.77;;;;;;;;;;5040479;28;20201;-73
2023/11/27 07:59:32;;;;;;;20.93;13.17;;;;;;;;;;5020761;28;20240;-72
2023/11/27 08:02:00;;;;;;;20.43;14.30;;;;;;;;;;5026614;28;20219;-72
2023/11/27 08:04:25;;;;;;;18.20;12.63;;;;;;;;;;5040841;28;20189;-73
2023/11/27 08:06:51;;;;;;;17.43;12.40;;;;;;;;;;5027320;28;20190;-74
2023/11/27 08:09:17;;;;;;;18.00;13.87;;;;;;;;;;5028431;28;20198;-73
2023/11/27 08:11:42;;;;;;;20.90;13.73;;;;;;;;;;5034167;28;20666;-73
2023/11/27 08:14:10;;;;;;;22.73;13.47;;;;;;;;;;5013723;28;20213;-73
2023/11/27 08:16:35;;;;;;;18.33;13.43;;;;;;;;;;5017675;28;20193;-73
2023/11/27 08:19:01;;;;;;;16.30;11.63;;;;;;;;;;5021188;28;20647;-73
2023/11/27 08:21:26;;;;;;;18.53;12.43;;;;;;;;;;5029374;28;20302;-73
2023/11/27 08:23:52;;;;;;;15.87;11.53;;;;;;;;;;5029401;28;20179;-73
2023/11/27 08:26:17;;;;;;;15.03;11.30;;;;;;;;;;5040100;28;20563;-73
2023/11/27 08:28:44;;;;;;;18.20;11.57;;;;;;;;;;5031822;28;20185;-73
2023/11/27 08:31:09;;;;;;;16.13;10.10;;;;;;;;;;5024896;28;20243;-73
2023/11/27 08:33:35;;;;;;;15.27;10.10;;;;;;;;;;5045280;28;20262;-73
2023/11/27 08:36:03;;;;;;;12.33;9.53;;;;;;;;;;5030018;28;20637;-73
2023/11/27 08:38:32;;;;;;;12.30;9.03;;;;;;;;;;5023936;28;20199;-73
2023/11/27 08:40:58;;;;;;;11.13;8.30;;;;;;;;;;5016911;28;20214;-73
2023/11/27 08:43:25;;;;;;;11.83;8.30;;;;;;;;;;5042096;28;20209;-72
2023/11/27 08:45:50;;;;;;;11.10;7.73;;;;;;;;;;5021073;28;20181;-72
2023/11/27 08:48:16;;;;;;;11.97;8.50;;;;;;;;;;5034234;28;20190;-73
2023/11/27 08:50:42;;;;;;;13.20;8.47;;;;;;;;;;5030366;28;20216;-72
2023/11/27 08:53:09;;;;;;;11.97;7.83;;;;;;;;;;5019035;28;20197;-73
2023/11/27 08:55:35;;;;;;;11.07;7.37;;;;;;;;;;5024899;28;20269;-72
2023/11/27 08:58:03;;;;;;;13.73;8.80;;;;;;;;;;5015330;28;20712;-73
2023/11/27 09:00:29;;;;;;;11.87;8.17;;;;;;;;;;5020387;28;20200;-73
2023/11/27 09:02:56;;;;;;;12.53;8.87;;;;;;;;;;5027531;28;20186;-73
2023/11/27 09:05:31;;;;;;;12.33;9.10;;;;;;;;;;5022099;28;20190;-72
2023/11/27 09:07:57;;;;;;;13.57;9.43;;;;;;;;;;4997310;28;20177;-73
2023/11/27 09:10:24;;;;;;;12.63;9.17;;;;;;;;;;5023671;28;20182;-73
2023/11/27 09:12:49;;;;;;;12.73;9.10;;;;;;;;;;5022937;28;20937;-72
2023/11/27 09:15:18;;;;;;;11.97;9.17;;;;;;;;;;5028402;28;20222;-72
2023/11/27 09:17:45;;;;;;;10.90;8.47;;;;;;;;;;5019241;28;20794;-72
2023/11/27 09:20:11;;;;;;;10.33;8.50;;;;;;;;;;5022757;28;20197;-72
2023/11/27 09:22:39;;;;;;;10.67;8.33;;;;;;;;;;5026254;28;20226;-72
2023/11/27 09:25:08;;;;;;;10.60;7.93;;;;;;;;;;5026139;28;20214;-72
2023/11/27 09:27:37;;;;;;;8.90;7.67;;;;;;;;;;5045014;28;20185;-72
2023/11/27 09:30:04;;;;;;;9.33;7.80;;;;;;;;;;5018398;28;20560;-72
2023/11/27 09:32:29;;;;;;;9.50;7.73;;;;;;;;;;5029832;28;20667;-72
2023/11/27 09:34:55;;;;;;;8.80;6.90;;;;;;;;;;5026267;28;20250;-72
2023/11/27 09:37:21;;;;;;;9.83;7.30;;;;;;;;;;5033028;28;20185;-72
2023/11/27 09:39:46;;;;;;;8.87;7.03;;;;;;;;;;5032163;28;20825;-72
2023/11/27 09:42:12;;;;;;;11.70;7.30;;;;;;;;;;5030619;28;20214;-72
2023/11/27 09:44:37;;;;;;;11.47;7.50;;;;;;;;;;5044006;28;20193;-71
2023/11/27 09:47:03;;;;;;;10.03;8.03;;;;;;;;;;5042088;28;20216;-72
2023/11/27 09:49:31;;;;;;;10.30;7.20;;;;;;;;;;5016647;28;20185;-71
2023/11/27 09:51:59;;;;;;;8.47;7.10;;;;;;;;;;5014447;28;20189;-72
2023/11/27 09:54:28;;;;;;;11.37;8.00;;;;;;;;;;5010759;28;20715;-72
2023/11/27 09:56:54;;;;;;;8.93;7.53;;;;;;;;;;5022560;28;20183;-71
2023/11/27 09:59:20;;;;;;;9.57;7.70;;;;;;;;;;5017133;28;20218;-71
2023/11/27 10:01:48;;;;;;;10.63;8.03;;;;;;;;;;5036564;28;20683;-72
2023/11/27 10:04:15;;;;;;;8.87;7.87;;;;;;;;;;5017437;28;20579;-72
2023/11/27 10:06:42;;;;;;;10.27;8.20;;;;;;;;;;5013359;28;20186;-72
2023/11/27 10:09:07;;;;;;;9.53;7.47;;;;;;;;;;5019809;28;20764;-72
2023/11/27 10:11:36;;;;;;;7.30;6.33;;;;;;;;;;5036128;28;20229;-72
2023/11/27 10:14:05;;;;;;;6.87;6.17;;;;;;;;;;5033981;28;20189;-72
2023/11/27 10:16:35;;;;;;;8.73;5.87;;;;;;;;;;5036206;28;20700;-72
2023/11/27 10:19:08;;;;;;;9.20;6.93;;;;;;;;;;5030791;28;20232;-75
2023/11/27 10:21:34;;;;;;;8.20;5.37;;;;;;;;;;5033673;28;20214;-74
2023/11/27 10:24:01;;;;;;;6.40;5.73;;;;;;;;;;5029858;28;20272;-74
2023/11/27 10:26:33;;;;;;;7.00;5.37;;;;;;;;;;5028448;28;20187;-74
2023/11/27 10:28:58;;;;;;;6.77;5.70;;;;;;;;;;5032297;28;20383;-73
2023/11/27 10:31:24;;;;;;;6.70;5.17;;;;;;;;;;5038314;28;20190;-73
2023/11/27 10:33:51;;;;;;;5.67;4.93;;;;;;;;;;5004070;28;20205;-74
2023/11/27 10:36:23;;;;;;;7.57;4.87;;;;;;;;;;5027920;28;20186;-73
2023/11/27 10:39:14;;;;;;;5.87;5.27;;;;;;;;;;5022915;28;20579;-74
2023/11/27 10:41:50;;;;;;;4.80;4.40;;;;;;;;;;5027800;28;20202;-73
2023/11/27 10:44:17;;;;;;;4.73;4.10;;;;;;;;;;5022733;28;20194;-74
2023/11/27 10:46:44;;;;;;;4.00;3.60;;;;;;;;;;5022408;28;20182;-75
2023/11/27 10:49:15;;;;;;;4.43;3.60;;;;;;;;;;5021745;28;20198;-74
2023/11/27 10:51:44;;;;;;;5.33;4.27;;;;;;;;;;5019676;28;20274;-73
2023/11/27 10:54:14;;;;;;;4.30;3.60;;;;;;;;;;5030771;28;20479;-73
2023/11/27 10:56:46;;;;;;;4.93;4.13;;;;;;;;;;5023418;28;20311;-74
2023/11/27 10:59:17;;;;;;;5.10;4.57;;;;;;;;;;5016112;28;20193;-74
2023/11/27 11:01:43;;;;;;;8.60;5.40;;;;;;;;;;5019188;28;20217;-73
2023/11/27 11:04:37;;;;;;;8.07;5.73;;;;;;;;;;5015409;28;20725;-75
2023/11/27 11:07:18;;;;;;;9.53;6.07;;;;;;;;;;5019881;28;20201;-76
2023/11/27 11:09:51;;;;;;;7.83;5.93;;;;;;;;;;5030799;28;20186;-75
2023/11/27 11:12:20;;;;;;;7.20;6.07;;;;;;;;;;5031377;28;20218;-74
2023/11/27 11:14:48;;;;;;;6.17;5.57;;;;;;;;;;5009649;28;20191;-74
2023/11/27 11:17:40;;;;;;;5.50;5.00;;;;;;;;;;5032544;28;20190;-76
2023/11/27 11:20:28;;;;;;;6.70;4.87;;;;;;;;;;5044969;28;20615;-76
2023/11/27 11:23:00;;;;;;;5.50;4.90;;;;;;;;;;5030361;28;20178;-75
2023/11/27 11:25:51;;;;;;;6.30;5.33;;;;;;;;;;5032874;28;20190;-74
2023/11/27 11:28:28;;;;;;;5.90;4.90;;;;;;;;;;5018977;28;20179;-73
2023/11/27 11:31:15;;;;;;;5.47;4.67;;;;;;;;;;5022223;28;20705;-75
2023/11/27 11:33:42;;;;;;;6.77;4.90;;;;;;;;;;5031635;28;20737;-74
2023/11/27 11:36:12;;;;;;;5.47;4.80;;;;;;;;;;5030464;28;20178;-73
2023/11/27 11:38:48;;;;;;;5.53;4.70;;;;;;;;;;5030727;28;20193;-73
2023/11/27 11:41:17;;;;;;;5.17;4.33;;;;;;;;;;5026922;28;20394;-73
2023/11/27 11:43:45;;;;;;;5.73;4.50;;;;;;;;;;5026440;28;20654;-73
2023/11/27 11:46:33;;;;;;;4.60;4.13;;;;;;;;;;5032691;28;20185;-73
2023/11/27 11:49:02;;;;;;;4.87;4.10;;;;;;;;;;5037895;28;20177;-74
2023/11/27 11:51:31;;;;;;;4.50;4.07;;;;;;;;;;5040229;28;20649;-73
2023/11/27 11:53:57;;;;;;;5.17;4.50;;;;;;;;;;5025489;28;20209;-73
2023/11/27 11:56:27;;;;;;;5.07;4.23;;;;;;;;;;5014017;28;20691;-73
2023/11/27 11:58:57;;;;;;;5.60;4.97;;;;;;;;;;5013505;28;20186;-73
2023/11/27 12:01:37;;;;;;;5.37;4.87;;;;;;;;;;5036349;28;20217;-73
2023/11/27 12:04:08;;;;;;;4.97;4.47;;;;;;;;;;5023478;28;20186;-73
2023/11/27 12:06:40;;;;;;;4.93;4.30;;;;;;;;;;5013807;28;20274;-73
2023/11/27 12:09:06;;;;;;;6.47;3.97;;;;;;;;;;5022860;28;20194;-73
2023/11/27 12:11:31;;;;;;;4.80;3.47;;;;;;;;;;5029304;28;20355;-73
2023/11/27 12:14:05;;;;;;;4.50;4.03;;;;;;;;;;5029387;28;20190;-73
2023/11/27 12:16:30;;;;;;;4.73;3.77;;;;;;;;;;5029396;28;20563;-73
2023/11/27 12:18:56;;;;;;;5.07;3.93;;;;;;;;;;5027692;28;20209;-74
2023/11/27 12:21:22;;;;;;;5.13;3.47;;;;;;;;;;5018219;28;20226;-73
2023/11/27 12:23:51;;;;;;;5.30;3.90;;;;;;;;;;5028671;28;20189;-73
2023/11/27 12:26:23;;;;;;;4.90;4.00;;;;;;;;;;5019541;28;20223;-73
2023/11/27 12:28:52;;;;;;;4.23;3.73;;;;;;;;;;5028862;28;20237;-73
2023/11/27 12:31:19;;;;;;;4.33;3.93;;;;;;;;;;5039620;28;20183;-73
2023/11/27 12:33:49;;;;;;;4.93;4.20;;;;;;;;;;5043625;28;20182;-73
2023/11/27 12:36:20;;;;;;;4.57;3.83;;;;;;;;;;5029283;28;20270;-73
2023/11/27 12:38:52;;;;;;;4.30;3.90;;;;;;;;;;5037614;28;20227;-73
2023/11/27 12:41:29;;;;;;;5.23;4.00;;;;;;;;;;5032859;28;20293;-73
2023/11/27 12:44:24;;;;;;;5.97;4.10;;;;;;;;;;5027274;28;20189;-72
2023/11/27 12:46:52;;;;;;;4.00;3.60;;;;;;;;;;5030451;28;20226;-73
2023/11/27 12:49:26;;;;;;;4.47;4.07;;;;;;;;;;5039480;28;20193;-73
2023/11/27 12:51:53;;;;;;;4.53;4.10;;;;;;;;;;5014611;28;20244;-73
2023/11/27 12:54:20;;;;;;;5.17;4.20;;;;;;;;;;5022964;28;20191;-73
2023/11/27 12:56:56;;;;;;;4.30;3.90;;;;;;;;;;5027080;28;20593;-73
2023/11/27 12:59:23;;;;;;;4.60;4.10;;;;;;;;;;5010987;28;20194;-73
2023/11/27 13:01:58;;;;;;;3.67;3.27;;;;;;;;;;5009080;28;20199;-73
2023/11/27 13:04:29;;;;;;;3.90;3.53;;;;;;;;;;5024024;28;20220;-73
2023/11/27 13:06:59;;;;;;;4.60;3.80;;;;;;;;;;5039291;28;20430;-73
2023/11/27 13:09:26;;;;;;;4.17;3.40;;;;;;;;;;5017106;28;20186;-73
2023/11/27 13:11:52;;;;;;;3.90;3.50;;;;;;;;;;5038739;28;20236;-71
2023/11/27 13:14:24;;;;;;;5.33;4.50;;;;;;;;;;5030619;28;20501;-72
2023/11/27 13:16:51;;;;;;;6.50;5.00;;;;;;;;;;5025574;28;20189;-72
2023/11/27 13:19:17;;;;;;;5.83;4.80;;;;;;;;;;5037575;28;20216;-72
2023/11/27 13:21:42;;;;;;;5.93;5.27;;;;;;;;;;5043873;28;20201;-72
2023/11/27 13:24:13;;;;;;;6.90;6.00;;;;;;;;;;5044354;28;20309;-72
2023/11/27 13:26:38;;;;;;;7.87;5.97;;;;;;;;;;5048955;28;20552;-72
2023/11/27 13:29:06;;;;;;;7.87;6.23;;;;;;;;;;5043245;28;20205;-72
2023/11/27 13:31:33;;;;;;;7.00;5.77;;;;;;;;;;5039188;28;20188;-72
2023/11/27 13:34:07;;;;;;;7.10;5.77;;;;;;;;;;5045397;28;20679;-72
2023/11/27 13:36:34;;;;;;;7.30;5.83;;;;;;;;;;5030841;28;20286;-72
2023/11/27 13:39:07;;;;;;;6.37;5.00;;;;;;;;;;5016199;28;20252;-72
2023/11/27 13:41:35;;;;;;;6.83;5.67;;;;;;;;;;5029464;28;20216;-72
2023/11/27 13:44:01;;;;;;;8.53;6.23;;;;;;;;;;5032853;28;20269;-72
2023/11/27 13:46:26;;;;;;;5.63;4.90;;;;;;;;;;5029790;28;20186;-73
2023/11/27 13:48:52;;;;;;;6.30;5.37;;;;;;;;;;5032009;28;20625;-72
2023/11/27 13:51:19;;;;;;;6.73;5.40;;;;;;;;;;5040525;28;20189;-72
2023/11/27 13:53:47;;;;;;;6.00;4.70;;;;;;;;;;5030575;28;20182;-73
2023/11/27 13:56:18;;;;;;;6.60;5.20;;;;;;;;;;5019018;28;20202;-73
2023/11/27 13:58:51;;;;;;;7.17;5.60;;;;;;;;;;5022769;28;20191;-72
2023/11/27 14:01:19;;;;;;;5.60;4.97;;;;;;;;;;5030146;28;20297;-72
2023/11/27 14:03:45;;;;;;;6.80;5.17;;;;;;;;;;5030489;28;20777;-72
2023/11/27 14:06:19;;;;;;;6.13;4.33;;;;;;;;;;5036315;28;20475;-72
2023/11/27 14:08:51;;;;;;;6.53;5.03;;;;;;;;;;5023957;28;20524;-72
2023/11/27 14:11:26;;;;;;;7.33;5.23;;;;;;;;;;5023911;28;20240;-72
2023/11/27 14:13:54;;;;;;;6.97;4.90;;;;;;;;;;5034964;28;20181;-72
2023/11/27 14:16:22;;;;;;;6.07;4.93;;;;;;;;;;5025602;28;20199;-72
2023/11/27 14:20:02;;;;;;;5.57;4.83;;;;;;;;;;5032366;28;20194;-72
2023/11/27 14:24:14;;;;;;;6.67;5.30;;;;;;;;;;5036448;28;20577;-72
2023/11/27 14:27:14;;;;;;;5.50;4.80;;;;;;;;;;5036028;28;20703;-72
2023/11/27 14:29:37;;;;;;;7.67;5.60;;;;;;;;;;5032761;28;20585;-72